sim
Sign-in with your pilot id or email,
or register
Callsign
Passwort

Schedule Details

Flight Number: DLH2091 (2)
Departure: Hannover Langenhagen Airport (EDDV) at 07:20
Arrival: Munich Airport (EDDM) at 08:30
Route: Lufthansa Passenger Schedule. Enter filed route here before submitting Pirep.

Weather Information
Getting current METAR information for EDDV 220320Z VRB01KT 9999 2200NE BCFG NSC 08/07 Q1012
Getting current METAR information for EDDM 220320Z 33001KT 2500 0500S R08L/0650N R08R/0450U BCFG FEW001 08/07 Q1015 BECMG 3000

Schedule Frequency

Route Map